sensor_id;sensor_type;location;lat;lon;timestamp;pressure;altitude;pressure_sealevel;temperature;humidity
14882;BME280;7533;51.278;12.588;2022-08-21T00:04:41;100117.47;;;26.28;78.07
14882;BME280;7533;51.278;12.588;2022-08-21T00:09:58;100126.00;;;26.14;77.87
14882;BME280;7533;51.278;12.588;2022-08-21T00:15:02;100117.72;;;26.05;78.47
14882;BME280;7533;51.278;12.588;2022-08-21T00:20:11;100118.97;;;25.92;78.85
14882;BME280;7533;51.278;12.588;2022-08-21T00:25:16;100115.81;;;25.87;79.20
14882;BME280;7533;51.278;12.588;2022-08-21T00:30:26;100114.41;;;25.82;79.34
14882;BME280;7533;51.278;12.588;2022-08-21T00:35:31;100123.63;;;25.70;80.06
14882;BME280;7533;51.278;12.588;2022-08-21T00:40:50;100125.44;;;25.60;80.34
14882;BME280;7533;51.278;12.588;2022-08-21T00:45:54;100129.09;;;25.49;80.84
14882;BME280;7533;51.278;12.588;2022-08-21T00:50:59;100123.81;;;25.48;80.88
14882;BME280;7533;51.278;12.588;2022-08-21T00:56:08;100118.81;;;25.43;81.50
14882;BME280;7533;51.278;12.588;2022-08-21T01:01:12;100119.75;;;25.32;81.53
14882;BME280;7533;51.278;12.588;2022-08-21T01:06:15;100125.13;;;25.23;81.74
14882;BME280;7533;51.278;12.588;2022-08-21T01:11:20;100118.25;;;25.19;82.13
14882;BME280;7533;51.278;12.588;2022-08-21T01:16:23;100125.50;;;25.18;82.16
14882;BME280;7533;51.278;12.588;2022-08-21T01:21:28;100119.78;;;25.12;81.81
14882;BME280;7533;51.278;12.588;2022-08-21T01:26:34;100120.78;;;25.11;81.86
14882;BME280;7533;51.278;12.588;2022-08-21T01:31:38;100117.97;;;25.01;82.28
14882;BME280;7533;51.278;12.588;2022-08-21T01:36:42;100119.66;;;24.92;82.73
14882;BME280;7533;51.278;12.588;2022-08-21T01:41:45;100122.00;;;24.86;82.42
14882;BME280;7533;51.278;12.588;2022-08-21T01:46:48;100118.72;;;24.82;83.34
14882;BME280;7533;51.278;12.588;2022-08-21T01:51:53;100118.97;;;24.79;83.01
14882;BME280;7533;51.278;12.588;2022-08-21T01:56:58;100122.34;;;24.71;82.67
14882;BME280;7533;51.278;12.588;2022-08-21T02:02:01;100117.97;;;24.59;82.82
14882;BME280;7533;51.278;12.588;2022-08-21T02:07:06;100125.97;;;24.61;82.74
14882;BME280;7533;51.278;12.588;2022-08-21T02:12:11;100118.97;;;24.58;82.93
14882;BME280;7533;51.278;12.588;2022-08-21T02:17:13;100113.75;;;24.66;83.13
14882;BME280;7533;51.278;12.588;2022-08-21T02:22:18;100112.50;;;24.70;82.67
14882;BME280;7533;51.278;12.588;2022-08-21T02:27:21;100099.97;;;24.69;82.79
14882;BME280;7533;51.278;12.588;2022-08-21T02:32:27;100100.78;;;24.81;82.21
14882;BME280;7533;51.278;12.588;2022-08-21T02:37:31;100105.56;;;24.77;82.19
14882;BME280;7533;51.278;12.588;2022-08-21T02:42:34;100105.09;;;24.72;81.83
14882;BME280;7533;51.278;12.588;2022-08-21T02:47:38;100114.00;;;24.63;81.60
14882;BME280;7533;51.278;12.588;2022-08-21T02:52:42;100106.56;;;24.56;81.66
14882;BME280;7533;51.278;12.588;2022-08-21T02:57:52;100104.63;;;24.46;82.21
14882;BME280;7533;51.278;12.588;2022-08-21T03:02:56;100090.97;;;24.48;82.71
14882;BME280;7533;51.278;12.588;2022-08-21T03:08:04;100088.59;;;24.54;82.62
14882;BME280;7533;51.278;12.588;2022-08-21T03:13:11;100095.25;;;24.50;82.20
14882;BME280;7533;51.278;12.588;2022-08-21T03:18:14;100095.72;;;24.56;82.04
14882;BME280;7533;51.278;12.588;2022-08-21T03:23:18;100103.84;;;24.56;81.84
14882;BME280;7533;51.278;12.588;2022-08-21T03:28:22;100103.47;;;24.60;82.66
14882;BME280;7533;51.278;12.588;2022-08-21T03:33:25;100098.97;;;24.70;81.95
14882;BME280;7533;51.278;12.588;2022-08-21T03:38:31;100104.84;;;24.75;81.38
14882;BME280;7533;51.278;12.588;2022-08-21T03:43:35;100108.13;;;24.79;81.40
14882;BME280;7533;51.278;12.588;2022-08-21T03:48:38;100112.44;;;24.82;81.33
14882;BME280;7533;51.278;12.588;2022-08-21T03:53:42;100116.72;;;24.84;80.90
14882;BME280;7533;51.278;12.588;2022-08-21T03:58:46;100120.69;;;24.80;80.27
14882;BME280;7533;51.278;12.588;2022-08-21T04:03:49;100122.06;;;24.74;79.87
14882;BME280;7533;51.278;12.588;2022-08-21T04:08:53;100116.78;;;24.73;79.65
14882;BME280;7533;51.278;12.588;2022-08-21T04:13:56;100126.91;;;24.71;79.76
14882;BME280;7533;51.278;12.588;2022-08-21T04:18:59;100134.63;;;24.75;79.37
14882;BME280;7533;51.278;12.588;2022-08-21T04:24:05;100146.84;;;24.70;79.39
14882;BME280;7533;51.278;12.588;2022-08-21T04:29:08;100135.16;;;24.69;79.28
14882;BME280;7533;51.278;12.588;2022-08-21T04:34:11;100146.63;;;24.62;79.15
14882;BME280;7533;51.278;12.588;2022-08-21T04:39:16;100150.22;;;24.51;79.94
14882;BME280;7533;51.278;12.588;2022-08-21T04:44:19;100154.31;;;24.45;79.90
14882;BME280;7533;51.278;12.588;2022-08-21T04:49:22;100157.66;;;24.38;79.97
14882;BME280;7533;51.278;12.588;2022-08-21T04:54:26;100144.38;;;24.35;79.69
14882;BME280;7533;51.278;12.588;2022-08-21T04:59:33;100151.25;;;24.39;79.86
14882;BME280;7533;51.278;12.588;2022-08-21T05:04:41;100148.19;;;24.43;79.83
14882;BME280;7533;51.278;12.588;2022-08-21T05:09:45;100150.75;;;24.34;80.24
14882;BME280;7533;51.278;12.588;2022-08-21T05:14:48;100156.69;;;24.27;79.83
14882;BME280;7533;51.278;12.588;2022-08-21T05:19:51;100158.06;;;24.11;80.24
14882;BME280;7533;51.278;12.588;2022-08-21T05:24:57;100158.97;;;24.00;80.56
14882;BME280;7533;51.278;12.588;2022-08-21T05:29:59;100168.81;;;23.90;80.52
14882;BME280;7533;51.278;12.588;2022-08-21T05:35:03;100184.06;;;23.80;80.92
14882;BME280;7533;51.278;12.588;2022-08-21T05:40:09;100175.56;;;23.84;81.01
14882;BME280;7533;51.278;12.588;2022-08-21T05:45:25;100170.66;;;23.78;80.38
14882;BME280;7533;51.278;12.588;2022-08-21T05:50:45;100177.91;;;23.66;80.63
14882;BME280;7533;51.278;12.588;2022-08-21T05:55:50;100184.28;;;23.54;79.76
14882;BME280;7533;51.278;12.588;2022-08-21T06:00:53;100181.94;;;23.49;80.59
14882;BME280;7533;51.278;12.588;2022-08-21T06:05:56;100194.22;;;23.54;81.98
14882;BME280;7533;51.278;12.588;2022-08-21T06:11:02;100192.66;;;23.62;80.51
14882;BME280;7533;51.278;12.588;2022-08-21T06:16:07;100180.97;;;23.84;81.28
14882;BME280;7533;51.278;12.588;2022-08-21T06:21:11;100176.19;;;23.77;79.68
14882;BME280;7533;51.278;12.588;2022-08-21T06:26:15;100180.88;;;23.74;79.46
14882;BME280;7533;51.278;12.588;2022-08-21T06:31:21;100181.38;;;23.68;78.33
14882;BME280;7533;51.278;12.588;2022-08-21T06:36:25;100180.75;;;23.65;77.22
14882;BME280;7533;51.278;12.588;2022-08-21T06:41:30;100187.63;;;23.69;79.47
14882;BME280;7533;51.278;12.588;2022-08-21T06:46:39;100190.81;;;23.85;78.66
14882;BME280;7533;51.278;12.588;2022-08-21T06:51:45;100187.63;;;23.91;78.40
14882;BME280;7533;51.278;12.588;2022-08-21T06:56:49;100194.97;;;23.78;76.57
14882;BME280;7533;51.278;12.588;2022-08-21T07:01:52;100199.78;;;23.63;77.15
14882;BME280;7533;51.278;12.588;2022-08-21T07:06:55;100201.63;;;23.63;79.27
14882;BME280;7533;51.278;12.588;2022-08-21T07:12:00;100209.81;;;23.61;76.53
14882;BME280;7533;51.278;12.588;2022-08-21T07:17:03;100210.66;;;23.50;76.65
14882;BME280;7533;51.278;12.588;2022-08-21T07:22:06;100210.16;;;23.57;76.62
14882;BME280;7533;51.278;12.588;2022-08-21T07:27:11;100205.16;;;23.52;76.09
14882;BME280;7533;51.278;12.588;2022-08-21T07:32:16;100201.97;;;23.58;76.14
14882;BME280;7533;51.278;12.588;2022-08-21T07:37:22;100198.78;;;23.53;76.63
14882;BME280;7533;51.278;12.588;2022-08-21T07:42:26;100195.44;;;23.38;76.18
14882;BME280;7533;51.278;12.588;2022-08-21T07:47:29;100190.28;;;23.35;77.07
14882;BME280;7533;51.278;12.588;2022-08-21T07:52:43;100184.25;;;23.32;76.95
14882;BME280;7533;51.278;12.588;2022-08-21T07:57:48;100195.78;;;23.34;77.15
14882;BME280;7533;51.278;12.588;2022-08-21T08:02:52;100188.66;;;23.33;76.82
14882;BME280;7533;51.278;12.588;2022-08-21T08:07:56;100193.34;;;23.31;76.91
14882;BME280;7533;51.278;12.588;2022-08-21T08:13:01;100187.09;;;23.30;77.05
14882;BME280;7533;51.278;12.588;2022-08-21T08:18:04;100195.91;;;23.32;77.47
14882;BME280;7533;51.278;12.588;2022-08-21T08:23:09;100193.56;;;23.28;77.12
14882;BME280;7533;51.278;12.588;2022-08-21T08:28:13;100186.22;;;23.30;77.29
14882;BME280;7533;51.278;12.588;2022-08-21T08:33:18;100178.00;;;23.31;76.93
14882;BME280;7533;51.278;12.588;2022-08-21T08:38:22;100183.25;;;23.33;76.91
14882;BME280;7533;51.278;12.588;2022-08-21T08:43:28;100182.66;;;23.18;76.44
14882;BME280;7533;51.278;12.588;2022-08-21T08:48:41;100180.03;;;23.16;76.27
14882;BME280;7533;51.278;12.588;2022-08-21T08:53:58;100184.00;;;23.12;76.87
14882;BME280;7533;51.278;12.588;2022-08-21T08:59:08;100186.53;;;23.03;77.64
14882;BME280;7533;51.278;12.588;2022-08-21T09:04:18;100185.19;;;23.08;76.72
14882;BME280;7533;51.278;12.588;2022-08-21T09:09:30;100199.91;;;23.04;77.39
14882;BME280;7533;51.278;12.588;2022-08-21T09:14:54;100199.31;;;23.23;75.85
14882;BME280;7533;51.278;12.588;2022-08-21T09:20:10;100191.72;;;23.17;75.53
14882;BME280;7533;51.278;12.588;2022-08-21T09:25:21;100195.13;;;23.08;75.18
14882;BME280;7533;51.278;12.588;2022-08-21T09:30:29;100192.69;;;23.16;77.08
14882;BME280;7533;51.278;12.588;2022-08-21T09:35:32;100184.63;;;23.38;77.62
14882;BME280;7533;51.278;12.588;2022-08-21T09:40:39;100192.25;;;23.56;72.27
14882;BME280;7533;51.278;12.588;2022-08-21T09:45:44;100177.41;;;23.72;72.87
14882;BME280;7533;51.278;12.588;2022-08-21T09:50:48;100178.88;;;23.99;73.07
14882;BME280;7533;51.278;12.588;2022-08-21T09:55:54;100179.47;;;24.14;70.64
14882;BME280;7533;51.278;12.588;2022-08-21T10:01:20;100186.94;;;24.21;67.76
14882;BME280;7533;51.278;12.588;2022-08-21T10:06:26;100179.56;;;24.35;66.23
14882;BME280;7533;51.278;12.588;2022-08-21T10:11:30;100182.66;;;24.19;65.89
14882;BME280;7533;51.278;12.588;2022-08-21T10:16:46;100175.00;;;24.24;67.90
14882;BME280;7533;51.278;12.588;2022-08-21T10:22:00;100174.69;;;24.61;68.66
14882;BME280;7533;51.278;12.588;2022-08-21T10:27:15;100176.38;;;24.62;67.07
14882;BME280;7533;51.278;12.588;2022-08-21T10:32:45;100170.00;;;24.84;69.49
14882;BME280;7533;51.278;12.588;2022-08-21T10:38:00;100170.66;;;24.97;67.42
14882;BME280;7533;51.278;12.588;2022-08-21T10:43:18;100163.81;;;25.14;68.23
14882;BME280;7533;51.278;12.588;2022-08-21T10:48:29;100168.75;;;25.20;68.58
14882;BME280;7533;51.278;12.588;2022-08-21T10:53:50;100159.78;;;25.29;66.61
14882;BME280;7533;51.278;12.588;2022-08-21T10:59:19;100156.38;;;25.27;63.46
14882;BME280;7533;51.278;12.588;2022-08-21T11:04:32;100166.84;;;25.41;66.35
14882;BME280;7533;51.278;12.588;2022-08-21T11:09:52;100154.50;;;25.48;66.65
14882;BME280;7533;51.278;12.588;2022-08-21T11:15:01;100163.38;;;25.60;65.82
14882;BME280;7533;51.278;12.588;2022-08-21T11:20:10;100156.25;;;25.59;65.43
14882;BME280;7533;51.278;12.588;2022-08-21T11:25:21;100157.84;;;25.71;63.03
14882;BME280;7533;51.278;12.588;2022-08-21T11:30:32;100148.47;;;25.75;63.17
14882;BME280;7533;51.278;12.588;2022-08-21T11:35:46;100143.94;;;25.76;60.62
14882;BME280;7533;51.278;12.588;2022-08-21T11:41:02;100139.44;;;25.65;59.79
14882;BME280;7533;51.278;12.588;2022-08-21T11:46:23;100143.31;;;25.72;61.57
14882;BME280;7533;51.278;12.588;2022-08-21T11:51:33;100134.66;;;25.78;60.09
14882;BME280;7533;51.278;12.588;2022-08-21T11:56:39;100127.22;;;25.80;59.96
14882;BME280;7533;51.278;12.588;2022-08-21T12:01:45;100132.97;;;25.97;60.51
14882;BME280;7533;51.278;12.588;2022-08-21T12:06:49;100117.59;;;26.07;60.90
14882;BME280;7533;51.278;12.588;2022-08-21T12:12:01;100125.88;;;26.05;58.80
14882;BME280;7533;51.278;12.588;2022-08-21T12:17:09;100127.88;;;26.13;57.53
14882;BME280;7533;51.278;12.588;2022-08-21T12:22:23;100116.03;;;26.24;57.25
14882;BME280;7533;51.278;12.588;2022-08-21T12:27:46;100114.47;;;26.31;57.71
14882;BME280;7533;51.278;12.588;2022-08-21T12:32:57;100115.75;;;26.36;55.99
14882;BME280;7533;51.278;12.588;2022-08-21T12:38:07;100117.81;;;26.44;56.26
14882;BME280;7533;51.278;12.588;2022-08-21T12:43:16;100123.22;;;26.54;55.57
14882;BME280;7533;51.278;12.588;2022-08-21T12:48:26;100119.06;;;26.69;56.13
14882;BME280;7533;51.278;12.588;2022-08-21T12:53:38;100110.91;;;26.79;56.92
14882;BME280;7533;51.278;12.588;2022-08-21T12:58:46;100103.59;;;26.89;55.79
14882;BME280;7533;51.278;12.588;2022-08-21T13:03:50;100104.47;;;26.89;54.88
14882;BME280;7533;51.278;12.588;2022-08-21T13:09:10;100109.00;;;26.99;53.77
14882;BME280;7533;51.278;12.588;2022-08-21T13:14:30;100104.72;;;26.96;54.73
14882;BME280;7533;51.278;12.588;2022-08-21T13:19:34;100101.69;;;26.99;55.84
14882;BME280;7533;51.278;12.588;2022-08-21T13:24:38;100090.56;;;26.93;56.89
14882;BME280;7533;51.278;12.588;2022-08-21T13:29:44;100088.38;;;27.15;54.01
14882;BME280;7533;51.278;12.588;2022-08-21T13:34:54;100089.56;;;27.13;54.74
14882;BME280;7533;51.278;12.588;2022-08-21T13:40:00;100090.28;;;27.05;56.25
14882;BME280;7533;51.278;12.588;2022-08-21T13:45:12;100092.88;;;26.87;56.29
14882;BME280;7533;51.278;12.588;2022-08-21T13:50:16;100083.81;;;27.16;56.54
14882;BME280;7533;51.278;12.588;2022-08-21T13:55:24;100079.97;;;26.99;56.47
14882;BME280;7533;51.278;12.588;2022-08-21T14:00:29;100077.25;;;27.09;56.60
14882;BME280;7533;51.278;12.588;2022-08-21T14:05:35;100087.22;;;27.28;56.50
14882;BME280;7533;51.278;12.588;2022-08-21T14:10:43;100082.88;;;27.45;54.14
14882;BME280;7533;51.278;12.588;2022-08-21T14:15:54;100084.34;;;27.29;55.91
14882;BME280;7533;51.278;12.588;2022-08-21T14:21:05;100075.41;;;27.09;55.21
14882;BME280;7533;51.278;12.588;2022-08-21T14:26:10;100077.16;;;27.38;55.33
14882;BME280;7533;51.278;12.588;2022-08-21T14:31:16;100072.19;;;27.33;55.30
14882;BME280;7533;51.278;12.588;2022-08-21T14:36:20;100066.94;;;27.50;55.92
14882;BME280;7533;51.278;12.588;2022-08-21T14:41:25;100063.88;;;27.62;56.05
14882;BME280;7533;51.278;12.588;2022-08-21T14:46:31;100058.69;;;27.69;55.92
14882;BME280;7533;51.278;12.588;2022-08-21T14:51:41;100057.53;;;27.72;56.06
14882;BME280;7533;51.278;12.588;2022-08-21T14:56:57;100061.44;;;27.59;55.72
14882;BME280;7533;51.278;12.588;2022-08-21T15:02:00;100063.31;;;27.59;55.33
14882;BME280;7533;51.278;12.588;2022-08-21T15:07:05;100056.97;;;27.68;55.55
14882;BME280;7533;51.278;12.588;2022-08-21T15:12:12;100048.63;;;27.79;55.74
14882;BME280;7533;51.278;12.588;2022-08-21T15:17:16;100050.50;;;27.97;55.59
14882;BME280;7533;51.278;12.588;2022-08-21T15:22:19;100034.81;;;27.90;55.96
14882;BME280;7533;51.278;12.588;2022-08-21T15:27:30;100038.59;;;27.80;54.75
14882;BME280;7533;51.278;12.588;2022-08-21T15:32:34;100044.78;;;27.72;54.73
14882;BME280;7533;51.278;12.588;2022-08-21T15:37:38;100046.72;;;27.89;55.90
14882;BME280;7533;51.278;12.588;2022-08-21T15:42:43;100040.03;;;28.02;56.82
14882;BME280;7533;51.278;12.588;2022-08-21T15:47:49;100037.75;;;27.97;57.08
14882;BME280;7533;51.278;12.588;2022-08-21T15:52:54;100041.66;;;28.12;57.88
14882;BME280;7533;51.278;12.588;2022-08-21T15:58:12;100037.94;;;27.96;55.70
14882;BME280;7533;51.278;12.588;2022-08-21T16:03:20;100032.63;;;27.94;55.41
14882;BME280;7533;51.278;12.588;2022-08-21T16:08:25;100030.84;;;28.03;55.06
14882;BME280;7533;51.278;12.588;2022-08-21T16:13:36;100031.88;;;28.02;55.14
14882;BME280;7533;51.278;12.588;2022-08-21T16:18:40;100020.75;;;27.95;54.24
14882;BME280;7533;51.278;12.588;2022-08-21T16:23:43;100027.91;;;27.96;54.46
14882;BME280;7533;51.278;12.588;2022-08-21T16:28:48;100031.88;;;28.02;55.01
14882;BME280;7533;51.278;12.588;2022-08-21T16:33:57;100031.38;;;27.88;54.15
14882;BME280;7533;51.278;12.588;2022-08-21T16:39:00;100027.78;;;27.88;54.70
14882;BME280;7533;51.278;12.588;2022-08-21T16:44:05;100010.84;;;27.76;53.72
14882;BME280;7533;51.278;12.588;2022-08-21T16:49:11;100017.69;;;27.80;53.01
14882;BME280;7533;51.278;12.588;2022-08-21T16:54:15;100011.69;;;27.77;52.85
14882;BME280;7533;51.278;12.588;2022-08-21T16:59:19;100015.78;;;27.90;52.75
14882;BME280;7533;51.278;12.588;2022-08-21T17:04:22;100011.25;;;27.99;54.12
14882;BME280;7533;51.278;12.588;2022-08-21T17:09:26;100015.66;;;28.00;54.78
14882;BME280;7533;51.278;12.588;2022-08-21T17:14:30;100012.66;;;27.85;53.90
14882;BME280;7533;51.278;12.588;2022-08-21T17:19:33;100018.31;;;27.92;54.08
14882;BME280;7533;51.278;12.588;2022-08-21T17:24:36;100013.06;;;27.90;53.16
14882;BME280;7533;51.278;12.588;2022-08-21T17:29:40;100015.59;;;27.92;52.74
14882;BME280;7533;51.278;12.588;2022-08-21T17:34:43;100013.06;;;27.90;53.11
14882;BME280;7533;51.278;12.588;2022-08-21T17:39:47;100024.31;;;27.96;53.38
14882;BME280;7533;51.278;12.588;2022-08-21T17:44:51;100021.22;;;27.90;53.14
14882;BME280;7533;51.278;12.588;2022-08-21T17:49:56;100017.69;;;27.80;53.50
14882;BME280;7533;51.278;12.588;2022-08-21T17:54:59;100030.00;;;27.84;53.43
14882;BME280;7533;51.278;12.588;2022-08-21T18:00:06;100027.00;;;27.78;53.42
14882;BME280;7533;51.278;12.588;2022-08-21T18:05:13;100028.25;;;27.83;54.61
14882;BME280;7533;51.278;12.588;2022-08-21T18:10:16;100031.69;;;27.85;56.37
14882;BME280;7533;51.278;12.588;2022-08-21T18:15:20;100037.22;;;27.93;56.09
14882;BME280;7533;51.278;12.588;2022-08-21T18:20:23;100048.41;;;27.90;56.26
14882;BME280;7533;51.278;12.588;2022-08-21T18:25:26;100049.66;;;27.96;56.50
14882;BME280;7533;51.278;12.588;2022-08-21T18:30:32;100048.94;;;27.94;56.90
14882;BME280;7533;51.278;12.588;2022-08-21T18:35:39;100050.81;;;27.93;57.14
14882;BME280;7533;51.278;12.588;2022-08-21T18:40:44;100051.53;;;27.96;57.23
14882;BME280;7533;51.278;12.588;2022-08-21T18:45:49;100051.81;;;27.92;57.34
14882;BME280;7533;51.278;12.588;2022-08-21T18:50:52;100058.44;;;27.90;57.54
14882;BME280;7533;51.278;12.588;2022-08-21T18:55:55;100068.06;;;27.84;57.64
14882;BME280;7533;51.278;12.588;2022-08-21T19:01:20;100062.69;;;27.75;58.08
14882;BME280;7533;51.278;12.588;2022-08-21T19:06:25;100073.81;;;27.81;58.04
14882;BME280;7533;51.278;12.588;2022-08-21T19:11:28;100065.47;;;27.83;58.13
14882;BME280;7533;51.278;12.588;2022-08-21T19:16:33;100063.53;;;27.75;58.21
14882;BME280;7533;51.278;12.588;2022-08-21T19:21:36;100062.72;;;27.92;57.55
14882;BME280;7533;51.278;12.588;2022-08-21T19:26:40;100068.25;;;28.01;57.14
14882;BME280;7533;51.278;12.588;2022-08-21T19:31:44;100065.97;;;27.96;57.05
14882;BME280;7533;51.278;12.588;2022-08-21T19:36:49;100071.25;;;27.98;57.38
14882;BME280;7533;51.278;12.588;2022-08-21T19:41:54;100067.38;;;28.00;57.83
14882;BME280;7533;51.278;12.588;2022-08-21T19:46:59;100068.53;;;27.98;57.66
14882;BME280;7533;51.278;12.588;2022-08-21T19:52:06;100073.81;;;27.81;58.08
14882;BME280;7533;51.278;12.588;2022-08-21T19:57:15;100074.13;;;27.78;58.56
14882;BME280;7533;51.278;12.588;2022-08-21T20:02:19;100079.66;;;27.86;58.54
14882;BME280;7533;51.278;12.588;2022-08-21T20:07:22;100078.44;;;27.71;58.58
14882;BME280;7533;51.278;12.588;2022-08-21T20:12:27;100079.47;;;27.88;58.58
14882;BME280;7533;51.278;12.588;2022-08-21T20:17:31;100074.44;;;27.93;58.21
14882;BME280;7533;51.278;12.588;2022-08-21T20:22:34;100080.44;;;27.97;58.20
14882;BME280;7533;51.278;12.588;2022-08-21T20:27:37;100079.09;;;27.83;58.36
14882;BME280;7533;51.278;12.588;2022-08-21T20:32:42;100083.59;;;27.74;58.54
14882;BME280;7533;51.278;12.588;2022-08-21T20:37:45;100078.31;;;27.73;58.50
14882;BME280;7533;51.278;12.588;2022-08-21T20:42:59;100077.31;;;27.74;58.28
14882;BME280;7533;51.278;12.588;2022-08-21T20:48:11;100076.69;;;27.80;57.83
14882;BME280;7533;51.278;12.588;2022-08-21T20:53:25;100086.00;;;27.77;57.86
14882;BME280;7533;51.278;12.588;2022-08-21T20:58:56;100079.56;;;27.78;57.73
14882;BME280;7533;51.278;12.588;2022-08-21T21:04:07;100078.56;;;27.79;57.88
14882;BME280;7533;51.278;12.588;2022-08-21T21:09:31;100076.53;;;27.81;57.67
14882;BME280;7533;51.278;12.588;2022-08-21T21:14:43;100078.84;;;27.76;57.98
14882;BME280;7533;51.278;12.588;2022-08-21T21:19:52;100073.56;;;27.75;57.57
14882;BME280;7533;51.278;12.588;2022-08-21T21:25:01;100082.75;;;27.74;57.75
14882;BME280;7533;51.278;12.588;2022-08-21T21:30:09;100079.59;;;27.68;57.79
14882;BME280;7533;51.278;12.588;2022-08-21T21:35:18;100093.47;;;27.65;57.81
14882;BME280;7533;51.278;12.588;2022-08-21T21:40:46;100087.91;;;27.67;57.77
14882;BME280;7533;51.278;12.588;2022-08-21T21:46:05;100089.03;;;27.64;57.96
14882;BME280;7533;51.278;12.588;2022-08-21T21:51:20;100085.31;;;27.65;58.01
14882;BME280;7533;51.278;12.588;2022-08-21T21:56:36;100087.50;;;27.62;58.09
14882;BME280;7533;51.278;12.588;2022-08-21T22:01:47;100094.81;;;27.61;57.97
14882;BME280;7533;51.278;12.588;2022-08-21T22:06:57;100088.31;;;27.45;58.62
14882;BME280;7533;51.278;12.588;2022-08-21T22:12:18;100096.34;;;27.64;58.20
14882;BME280;7533;51.278;12.588;2022-08-21T22:17:32;100098.78;;;27.67;58.26
14882;BME280;7533;51.278;12.588;2022-08-21T22:22:37;100093.34;;;27.67;58.54
14882;BME280;7533;51.278;12.588;2022-08-21T22:27:41;100093.47;;;27.65;58.69
14882;BME280;7533;51.278;12.588;2022-08-21T22:32:47;100097.66;;;27.60;58.73
14882;BME280;7533;51.278;12.588;2022-08-21T22:37:54;100095.94;;;27.59;58.91
14882;BME280;7533;51.278;12.588;2022-08-21T22:42:59;100101.97;;;27.53;59.39
14882;BME280;7533;51.278;12.588;2022-08-21T22:48:05;100086.97;;;27.49;59.35
14882;BME280;7533;51.278;12.588;2022-08-21T22:53:32;100103.19;;;27.40;59.51
14882;BME280;7533;51.278;12.588;2022-08-21T22:58:39;100093.94;;;27.33;59.40
14882;BME280;7533;51.278;12.588;2022-08-21T23:03:57;100097.22;;;27.27;59.36
14882;BME280;7533;51.278;12.588;2022-08-21T23:09:07;100093.38;;;27.20;59.75
14882;BME280;7533;51.278;12.588;2022-08-21T23:14:11;100092.84;;;27.17;59.69
14882;BME280;7533;51.278;12.588;2022-08-21T23:19:21;100100.59;;;27.11;59.68
14882;BME280;7533;51.278;12.588;2022-08-21T23:24:50;100100.16;;;27.06;59.73
14882;BME280;7533;51.278;12.588;2022-08-21T23:30:05;100105.31;;;27.00;59.70
14882;BME280;7533;51.278;12.588;2022-08-21T23:35:14;100103.88;;;26.96;59.62
14882;BME280;7533;51.278;12.588;2022-08-21T23:40:32;100109.91;;;26.89;59.65
14882;BME280;7533;51.278;12.588;2022-08-21T23:45:41;100107.63;;;26.85;60.11
14882;BME280;7533;51.278;12.588;2022-08-21T23:50:56;100110.75;;;26.80;60.26
14882;BME280;7533;51.278;12.588;2022-08-21T23:56:14;100105.91;;;26.74;60.10
